sensor_id;sensor_type;location;lat;lon;timestamp;P1;durP1;ratioP1;P2;durP2;ratioP2
5129;SDS011;2583;50.946;6.954;2023-02-15T00:01:55;35.53;;;24.10;;
5129;SDS011;2583;50.946;6.954;2023-02-15T00:04:24;33.47;;;23.27;;
5129;SDS011;2583;50.946;6.954;2023-02-15T00:07:12;37.63;;;23.60;;
5129;SDS011;2583;50.946;6.954;2023-02-15T00:09:40;34.07;;;21.40;;
5129;SDS011;2583;50.946;6.954;2023-02-15T00:12:07;30.33;;;22.07;;
5129;SDS011;2583;50.946;6.954;2023-02-15T00:14:35;35.93;;;23.80;;
5129;SDS011;2583;50.946;6.954;2023-02-15T00:17:02;35.93;;;23.83;;
5129;SDS011;2583;50.946;6.954;2023-02-15T00:19:29;37.93;;;25.43;;
5129;SDS011;2583;50.946;6.954;2023-02-15T00:21:55;36.90;;;22.30;;
5129;SDS011;2583;50.946;6.954;2023-02-15T00:24:22;35.90;;;23.10;;
5129;SDS011;2583;50.946;6.954;2023-02-15T00:26:49;33.47;;;22.70;;
5129;SDS011;2583;50.946;6.954;2023-02-15T00:29:16;35.10;;;22.83;;
5129;SDS011;2583;50.946;6.954;2023-02-15T00:31:44;37.87;;;23.70;;
5129;SDS011;2583;50.946;6.954;2023-02-15T00:36:40;37.00;;;22.80;;
5129;SDS011;2583;50.946;6.954;2023-02-15T00:39:08;37.20;;;23.97;;
5129;SDS011;2583;50.946;6.954;2023-02-15T00:41:35;33.80;;;22.70;;
5129;SDS011;2583;50.946;6.954;2023-02-15T00:44:02;36.50;;;23.73;;
5129;SDS011;2583;50.946;6.954;2023-02-15T00:46:29;36.80;;;23.17;;
5129;SDS011;2583;50.946;6.954;2023-02-15T00:48:56;37.07;;;23.57;;
5129;SDS011;2583;50.946;6.954;2023-02-15T00:51:23;36.63;;;22.70;;
5129;SDS011;2583;50.946;6.954;2023-02-15T00:53:50;41.47;;;23.53;;
5129;SDS011;2583;50.946;6.954;2023-02-15T00:56:17;36.87;;;23.67;;
5129;SDS011;2583;50.946;6.954;2023-02-15T00:58:44;34.13;;;23.00;;
5129;SDS011;2583;50.946;6.954;2023-02-15T01:01:12;39.37;;;23.00;;
5129;SDS011;2583;50.946;6.954;2023-02-15T01:03:41;37.97;;;23.40;;
5129;SDS011;2583;50.946;6.954;2023-02-15T01:06:09;38.73;;;23.50;;
5129;SDS011;2583;50.946;6.954;2023-02-15T01:08:37;34.77;;;22.63;;
5129;SDS011;2583;50.946;6.954;2023-02-15T01:11:05;36.03;;;22.97;;
5129;SDS011;2583;50.946;6.954;2023-02-15T01:13:33;36.40;;;22.20;;
5129;SDS011;2583;50.946;6.954;2023-02-15T01:16:00;36.70;;;23.00;;
5129;SDS011;2583;50.946;6.954;2023-02-15T01:18:28;41.93;;;23.47;;
5129;SDS011;2583;50.946;6.954;2023-02-15T01:20:56;32.63;;;21.73;;
5129;SDS011;2583;50.946;6.954;2023-02-15T01:23:23;35.30;;;22.50;;
5129;SDS011;2583;50.946;6.954;2023-02-15T01:25:50;36.37;;;23.33;;
5129;SDS011;2583;50.946;6.954;2023-02-15T01:28:17;33.27;;;22.53;;
5129;SDS011;2583;50.946;6.954;2023-02-15T01:30:44;36.03;;;22.27;;
5129;SDS011;2583;50.946;6.954;2023-02-15T01:33:11;34.23;;;21.80;;
5129;SDS011;2583;50.946;6.954;2023-02-15T01:35:44;33.30;;;22.00;;
5129;SDS011;2583;50.946;6.954;2023-02-15T01:38:12;33.73;;;22.57;;
5129;SDS011;2583;50.946;6.954;2023-02-15T01:40:40;35.60;;;22.63;;
5129;SDS011;2583;50.946;6.954;2023-02-15T01:43:10;37.97;;;22.57;;
5129;SDS011;2583;50.946;6.954;2023-02-15T01:45:38;36.77;;;22.47;;
5129;SDS011;2583;50.946;6.954;2023-02-15T01:50:52;37.83;;;23.40;;
5129;SDS011;2583;50.946;6.954;2023-02-15T01:53:32;34.90;;;22.50;;
5129;SDS011;2583;50.946;6.954;2023-02-15T01:56:05;36.37;;;23.50;;
5129;SDS011;2583;50.946;6.954;2023-02-15T01:58:39;35.17;;;21.73;;
5129;SDS011;2583;50.946;6.954;2023-02-15T02:01:07;38.10;;;22.70;;
5129;SDS011;2583;50.946;6.954;2023-02-15T02:06:27;32.67;;;20.93;;
5129;SDS011;2583;50.946;6.954;2023-02-15T02:08:55;36.40;;;21.97;;
5129;SDS011;2583;50.946;6.954;2023-02-15T02:11:23;36.27;;;22.70;;
5129;SDS011;2583;50.946;6.954;2023-02-15T02:13:50;37.50;;;23.37;;
5129;SDS011;2583;50.946;6.954;2023-02-15T02:16:32;33.07;;;21.83;;
5129;SDS011;2583;50.946;6.954;2023-02-15T02:32:51;37.20;;;22.23;;
5129;SDS011;2583;50.946;6.954;2023-02-15T02:35:33;38.20;;;22.90;;
5129;SDS011;2583;50.946;6.954;2023-02-15T02:38:33;32.50;;;22.00;;
5129;SDS011;2583;50.946;6.954;2023-02-15T02:41:31;40.03;;;23.07;;
5129;SDS011;2583;50.946;6.954;2023-02-15T02:44:05;37.53;;;23.77;;
5129;SDS011;2583;50.946;6.954;2023-02-15T02:46:48;36.17;;;22.10;;
5129;SDS011;2583;50.946;6.954;2023-02-15T02:49:58;38.57;;;23.67;;
5129;SDS011;2583;50.946;6.954;2023-02-15T03:00:46;37.93;;;22.20;;
5129;SDS011;2583;50.946;6.954;2023-02-15T03:03:25;35.00;;;22.87;;
5129;SDS011;2583;50.946;6.954;2023-02-15T03:05:59;36.80;;;22.77;;
5129;SDS011;2583;50.946;6.954;2023-02-15T03:08:30;35.20;;;21.73;;
5129;SDS011;2583;50.946;6.954;2023-02-15T03:11:02;32.73;;;21.77;;
5129;SDS011;2583;50.946;6.954;2023-02-15T03:13:30;36.30;;;22.87;;
5129;SDS011;2583;50.946;6.954;2023-02-15T03:15:58;36.80;;;22.50;;
5129;SDS011;2583;50.946;6.954;2023-02-15T03:18:46;34.33;;;21.30;;
5129;SDS011;2583;50.946;6.954;2023-02-15T03:21:20;39.40;;;22.40;;
5129;SDS011;2583;50.946;6.954;2023-02-15T03:23:54;30.90;;;20.63;;
5129;SDS011;2583;50.946;6.954;2023-02-15T03:26:26;35.57;;;21.30;;
5129;SDS011;2583;50.946;6.954;2023-02-15T03:28:55;33.50;;;19.83;;
5129;SDS011;2583;50.946;6.954;2023-02-15T03:31:27;33.40;;;22.77;;
5129;SDS011;2583;50.946;6.954;2023-02-15T03:33:58;34.07;;;20.60;;
5129;SDS011;2583;50.946;6.954;2023-02-15T03:36:29;33.83;;;20.83;;
5129;SDS011;2583;50.946;6.954;2023-02-15T03:39:20;33.20;;;20.27;;
5129;SDS011;2583;50.946;6.954;2023-02-15T03:41:55;33.50;;;21.83;;
5129;SDS011;2583;50.946;6.954;2023-02-15T03:44:27;34.20;;;21.60;;
5129;SDS011;2583;50.946;6.954;2023-02-15T03:47:08;34.30;;;20.63;;
5129;SDS011;2583;50.946;6.954;2023-02-15T03:49:44;38.40;;;22.03;;
5129;SDS011;2583;50.946;6.954;2023-02-15T03:52:27;30.00;;;19.53;;
5129;SDS011;2583;50.946;6.954;2023-02-15T03:54:56;33.97;;;20.30;;
5129;SDS011;2583;50.946;6.954;2023-02-15T03:57:24;39.57;;;22.57;;
5129;SDS011;2583;50.946;6.954;2023-02-15T04:03:01;37.00;;;20.90;;
5129;SDS011;2583;50.946;6.954;2023-02-15T04:05:38;38.90;;;21.67;;
5129;SDS011;2583;50.946;6.954;2023-02-15T04:08:06;36.50;;;21.57;;
5129;SDS011;2583;50.946;6.954;2023-02-15T04:10:33;31.07;;;20.40;;
5129;SDS011;2583;50.946;6.954;2023-02-15T04:13:30;35.17;;;21.20;;
5129;SDS011;2583;50.946;6.954;2023-02-15T04:15:57;38.10;;;21.90;;
5129;SDS011;2583;50.946;6.954;2023-02-15T04:18:33;36.07;;;21.13;;
5129;SDS011;2583;50.946;6.954;2023-02-15T04:21:20;37.80;;;21.70;;
5129;SDS011;2583;50.946;6.954;2023-02-15T04:24:07;36.30;;;21.40;;
5129;SDS011;2583;50.946;6.954;2023-02-15T04:26:53;33.90;;;21.27;;
5129;SDS011;2583;50.946;6.954;2023-02-15T04:29:22;37.10;;;22.07;;
5129;SDS011;2583;50.946;6.954;2023-02-15T04:31:50;33.03;;;19.33;;
5129;SDS011;2583;50.946;6.954;2023-02-15T04:34:18;34.40;;;21.43;;
5129;SDS011;2583;50.946;6.954;2023-02-15T04:36:45;33.57;;;21.03;;
5129;SDS011;2583;50.946;6.954;2023-02-15T04:39:13;36.50;;;21.10;;
5129;SDS011;2583;50.946;6.954;2023-02-15T04:41:40;31.73;;;19.37;;
5129;SDS011;2583;50.946;6.954;2023-02-15T04:44:07;30.77;;;20.10;;
5129;SDS011;2583;50.946;6.954;2023-02-15T04:46:34;35.27;;;21.13;;
5129;SDS011;2583;50.946;6.954;2023-02-15T04:49:01;32.40;;;20.90;;
5129;SDS011;2583;50.946;6.954;2023-02-15T04:51:29;33.87;;;21.10;;
5129;SDS011;2583;50.946;6.954;2023-02-15T04:53:55;41.03;;;22.80;;
5129;SDS011;2583;50.946;6.954;2023-02-15T04:56:22;33.60;;;20.77;;
5129;SDS011;2583;50.946;6.954;2023-02-15T04:58:49;33.60;;;20.13;;
5129;SDS011;2583;50.946;6.954;2023-02-15T05:01:16;37.37;;;22.40;;
5129;SDS011;2583;50.946;6.954;2023-02-15T05:03:43;30.67;;;20.10;;
5129;SDS011;2583;50.946;6.954;2023-02-15T05:06:10;28.63;;;19.80;;
5129;SDS011;2583;50.946;6.954;2023-02-15T05:08:36;31.53;;;20.47;;
5129;SDS011;2583;50.946;6.954;2023-02-15T05:11:03;34.87;;;21.00;;
5129;SDS011;2583;50.946;6.954;2023-02-15T05:13:30;36.60;;;19.83;;
5129;SDS011;2583;50.946;6.954;2023-02-15T05:15:57;34.37;;;21.07;;
5129;SDS011;2583;50.946;6.954;2023-02-15T05:18:24;31.47;;;20.03;;
5129;SDS011;2583;50.946;6.954;2023-02-15T05:20:50;30.97;;;19.90;;
5129;SDS011;2583;50.946;6.954;2023-02-15T05:23:17;33.77;;;20.70;;
5129;SDS011;2583;50.946;6.954;2023-02-15T05:25:47;28.20;;;19.67;;
5129;SDS011;2583;50.946;6.954;2023-02-15T05:28:33;28.13;;;18.90;;
5129;SDS011;2583;50.946;6.954;2023-02-15T05:31:06;30.57;;;18.90;;
5129;SDS011;2583;50.946;6.954;2023-02-15T05:33:34;29.60;;;18.90;;
5129;SDS011;2583;50.946;6.954;2023-02-15T05:36:01;31.40;;;19.43;;
5129;SDS011;2583;50.946;6.954;2023-02-15T05:38:29;27.60;;;18.17;;
5129;SDS011;2583;50.946;6.954;2023-02-15T05:40:56;30.93;;;19.27;;
5129;SDS011;2583;50.946;6.954;2023-02-15T05:43:24;29.80;;;19.57;;
5129;SDS011;2583;50.946;6.954;2023-02-15T05:45:52;34.93;;;20.40;;
5129;SDS011;2583;50.946;6.954;2023-02-15T05:48:20;31.40;;;19.77;;
5129;SDS011;2583;50.946;6.954;2023-02-15T05:50:59;28.60;;;18.83;;
5129;SDS011;2583;50.946;6.954;2023-02-15T05:53:29;32.97;;;19.07;;
5129;SDS011;2583;50.946;6.954;2023-02-15T05:55:57;32.17;;;18.97;;
5129;SDS011;2583;50.946;6.954;2023-02-15T05:58:30;30.50;;;19.23;;
5129;SDS011;2583;50.946;6.954;2023-02-15T06:00:58;30.70;;;18.93;;
5129;SDS011;2583;50.946;6.954;2023-02-15T06:03:26;29.87;;;18.43;;
5129;SDS011;2583;50.946;6.954;2023-02-15T06:05:54;29.47;;;19.97;;
5129;SDS011;2583;50.946;6.954;2023-02-15T06:08:21;28.00;;;18.37;;
5129;SDS011;2583;50.946;6.954;2023-02-15T06:10:48;28.63;;;18.93;;
5129;SDS011;2583;50.946;6.954;2023-02-15T06:13:15;32.33;;;19.07;;
5129;SDS011;2583;50.946;6.954;2023-02-15T06:15:41;30.90;;;17.60;;
5129;SDS011;2583;50.946;6.954;2023-02-15T06:18:08;26.03;;;19.00;;
5129;SDS011;2583;50.946;6.954;2023-02-15T06:20:35;27.83;;;18.57;;
5129;SDS011;2583;50.946;6.954;2023-02-15T06:23:02;30.97;;;20.07;;
5129;SDS011;2583;50.946;6.954;2023-02-15T06:25:29;31.80;;;18.20;;
5129;SDS011;2583;50.946;6.954;2023-02-15T06:27:56;26.93;;;18.07;;
5129;SDS011;2583;50.946;6.954;2023-02-15T06:30:23;32.43;;;19.97;;
5129;SDS011;2583;50.946;6.954;2023-02-15T06:32:49;28.07;;;18.43;;
5129;SDS011;2583;50.946;6.954;2023-02-15T06:35:16;31.00;;;19.00;;
5129;SDS011;2583;50.946;6.954;2023-02-15T06:37:44;31.47;;;19.00;;
5129;SDS011;2583;50.946;6.954;2023-02-15T06:40:12;30.67;;;18.37;;
5129;SDS011;2583;50.946;6.954;2023-02-15T06:42:43;31.80;;;17.87;;
5129;SDS011;2583;50.946;6.954;2023-02-15T06:45:10;27.60;;;18.43;;
5129;SDS011;2583;50.946;6.954;2023-02-15T06:47:38;24.37;;;16.90;;
5129;SDS011;2583;50.946;6.954;2023-02-15T06:50:05;24.47;;;17.37;;
5129;SDS011;2583;50.946;6.954;2023-02-15T06:52:33;27.83;;;17.70;;
5129;SDS011;2583;50.946;6.954;2023-02-15T06:55:00;27.60;;;17.53;;
5129;SDS011;2583;50.946;6.954;2023-02-15T06:57:27;27.20;;;17.93;;
5129;SDS011;2583;50.946;6.954;2023-02-15T06:59:53;28.63;;;18.50;;
5129;SDS011;2583;50.946;6.954;2023-02-15T07:02:20;26.57;;;17.67;;
5129;SDS011;2583;50.946;6.954;2023-02-15T07:04:47;26.83;;;17.03;;
5129;SDS011;2583;50.946;6.954;2023-02-15T07:07:14;26.17;;;16.77;;
5129;SDS011;2583;50.946;6.954;2023-02-15T07:09:41;28.77;;;18.53;;
5129;SDS011;2583;50.946;6.954;2023-02-15T07:12:08;24.53;;;17.63;;
5129;SDS011;2583;50.946;6.954;2023-02-15T07:14:54;25.00;;;15.97;;
5129;SDS011;2583;50.946;6.954;2023-02-15T07:17:21;21.20;;;15.70;;
5129;SDS011;2583;50.946;6.954;2023-02-15T07:20:11;24.80;;;16.70;;
5129;SDS011;2583;50.946;6.954;2023-02-15T07:22:48;22.10;;;15.20;;
5129;SDS011;2583;50.946;6.954;2023-02-15T07:25:16;31.67;;;18.30;;
5129;SDS011;2583;50.946;6.954;2023-02-15T07:27:43;23.70;;;15.83;;
5129;SDS011;2583;50.946;6.954;2023-02-15T07:30:12;25.73;;;16.60;;
5129;SDS011;2583;50.946;6.954;2023-02-15T07:32:40;25.63;;;17.47;;
5129;SDS011;2583;50.946;6.954;2023-02-15T07:35:30;24.63;;;16.93;;
5129;SDS011;2583;50.946;6.954;2023-02-15T07:37:57;28.10;;;18.37;;
5129;SDS011;2583;50.946;6.954;2023-02-15T07:40:24;25.70;;;16.70;;
5129;SDS011;2583;50.946;6.954;2023-02-15T07:42:51;24.47;;;16.37;;
5129;SDS011;2583;50.946;6.954;2023-02-15T07:45:22;21.30;;;15.60;;
5129;SDS011;2583;50.946;6.954;2023-02-15T07:47:49;25.83;;;16.20;;
5129;SDS011;2583;50.946;6.954;2023-02-15T07:50:15;26.17;;;14.90;;
5129;SDS011;2583;50.946;6.954;2023-02-15T07:52:42;22.57;;;15.73;;
5129;SDS011;2583;50.946;6.954;2023-02-15T07:55:09;22.90;;;15.33;;
5129;SDS011;2583;50.946;6.954;2023-02-15T07:57:42;21.87;;;14.87;;
5129;SDS011;2583;50.946;6.954;2023-02-15T08:00:12;23.13;;;15.70;;
5129;SDS011;2583;50.946;6.954;2023-02-15T08:02:41;21.90;;;14.67;;
5129;SDS011;2583;50.946;6.954;2023-02-15T08:05:08;25.07;;;15.53;;
5129;SDS011;2583;50.946;6.954;2023-02-15T08:07:35;23.63;;;17.20;;
5129;SDS011;2583;50.946;6.954;2023-02-15T08:10:01;20.27;;;14.70;;
5129;SDS011;2583;50.946;6.954;2023-02-15T08:12:28;20.83;;;15.20;;
5129;SDS011;2583;50.946;6.954;2023-02-15T08:14:55;22.90;;;15.63;;
5129;SDS011;2583;50.946;6.954;2023-02-15T08:17:22;21.07;;;15.10;;
5129;SDS011;2583;50.946;6.954;2023-02-15T08:19:49;22.07;;;14.47;;
5129;SDS011;2583;50.946;6.954;2023-02-15T08:22:16;23.50;;;15.60;;
5129;SDS011;2583;50.946;6.954;2023-02-15T08:24:43;17.87;;;13.60;;
5129;SDS011;2583;50.946;6.954;2023-02-15T08:27:10;22.93;;;14.47;;
5129;SDS011;2583;50.946;6.954;2023-02-15T08:29:38;21.10;;;15.00;;
5129;SDS011;2583;50.946;6.954;2023-02-15T08:32:06;24.63;;;16.03;;
5129;SDS011;2583;50.946;6.954;2023-02-15T08:34:37;23.20;;;15.20;;
5129;SDS011;2583;50.946;6.954;2023-02-15T08:37:06;19.90;;;15.13;;
5129;SDS011;2583;50.946;6.954;2023-02-15T08:39:33;19.87;;;14.53;;
5129;SDS011;2583;50.946;6.954;2023-02-15T08:42:01;20.00;;;14.83;;
5129;SDS011;2583;50.946;6.954;2023-02-15T08:44:28;21.40;;;15.07;;
5129;SDS011;2583;50.946;6.954;2023-02-15T08:46:55;20.93;;;14.03;;
5129;SDS011;2583;50.946;6.954;2023-02-15T08:49:28;18.07;;;14.10;;
5129;SDS011;2583;50.946;6.954;2023-02-15T08:51:55;18.70;;;15.20;;
5129;SDS011;2583;50.946;6.954;2023-02-15T08:54:22;15.60;;;13.17;;
5129;SDS011;2583;50.946;6.954;2023-02-15T08:56:48;18.10;;;14.10;;
5129;SDS011;2583;50.946;6.954;2023-02-15T08:59:19;16.90;;;13.73;;
5129;SDS011;2583;50.946;6.954;2023-02-15T09:01:48;17.10;;;13.30;;
5129;SDS011;2583;50.946;6.954;2023-02-15T09:04:16;15.27;;;13.20;;
5129;SDS011;2583;50.946;6.954;2023-02-15T09:06:44;16.60;;;12.60;;
5129;SDS011;2583;50.946;6.954;2023-02-15T09:09:14;15.83;;;12.97;;
5129;SDS011;2583;50.946;6.954;2023-02-15T09:11:42;21.77;;;12.17;;
5129;SDS011;2583;50.946;6.954;2023-02-15T09:14:12;26.00;;;14.10;;
5129;SDS011;2583;50.946;6.954;2023-02-15T09:16:42;17.07;;;13.03;;
5129;SDS011;2583;50.946;6.954;2023-02-15T09:19:15;19.10;;;12.93;;
5129;SDS011;2583;50.946;6.954;2023-02-15T09:21:44;18.10;;;14.30;;
5129;SDS011;2583;50.946;6.954;2023-02-15T09:24:13;16.47;;;11.97;;
5129;SDS011;2583;50.946;6.954;2023-02-15T09:26:42;14.07;;;12.63;;
5129;SDS011;2583;50.946;6.954;2023-02-15T09:29:11;14.20;;;12.70;;
5129;SDS011;2583;50.946;6.954;2023-02-15T09:31:40;15.20;;;12.50;;
5129;SDS011;2583;50.946;6.954;2023-02-15T09:34:17;17.37;;;12.40;;
5129;SDS011;2583;50.946;6.954;2023-02-15T09:36:46;15.13;;;12.40;;
5129;SDS011;2583;50.946;6.954;2023-02-15T09:39:17;16.83;;;12.60;;
5129;SDS011;2583;50.946;6.954;2023-02-15T09:47:20;12.97;;;11.57;;
5129;SDS011;2583;50.946;6.954;2023-02-15T09:58:49;17.90;;;12.70;;
5129;SDS011;2583;50.946;6.954;2023-02-15T10:04:04;17.40;;;12.37;;
5129;SDS011;2583;50.946;6.954;2023-02-15T10:06:41;15.23;;;12.50;;
5129;SDS011;2583;50.946;6.954;2023-02-15T10:28:51;15.93;;;11.73;;
5129;SDS011;2583;50.946;6.954;2023-02-15T10:51:08;16.63;;;11.63;;
5129;SDS011;2583;50.946;6.954;2023-02-15T10:56:20;17.07;;;11.83;;
5129;SDS011;2583;50.946;6.954;2023-02-15T11:04:11;12.37;;;11.07;;
5129;SDS011;2583;50.946;6.954;2023-02-15T11:06:41;13.50;;;12.10;;
5129;SDS011;2583;50.946;6.954;2023-02-15T11:09:14;14.90;;;11.50;;
5129;SDS011;2583;50.946;6.954;2023-02-15T11:11:44;13.63;;;11.73;;
5129;SDS011;2583;50.946;6.954;2023-02-15T11:17:09;13.17;;;11.70;;
5129;SDS011;2583;50.946;6.954;2023-02-15T11:19:40;11.07;;;9.97;;
5129;SDS011;2583;50.946;6.954;2023-02-15T11:22:15;14.00;;;11.23;;
5129;SDS011;2583;50.946;6.954;2023-02-15T11:24:43;14.47;;;11.20;;
5129;SDS011;2583;50.946;6.954;2023-02-15T11:29:48;13.20;;;11.33;;
5129;SDS011;2583;50.946;6.954;2023-02-15T11:32:39;17.37;;;11.80;;
5129;SDS011;2583;50.946;6.954;2023-02-15T11:40:24;14.27;;;11.40;;
5129;SDS011;2583;50.946;6.954;2023-02-15T11:43:07;15.00;;;12.10;;
5129;SDS011;2583;50.946;6.954;2023-02-15T11:45:41;19.43;;;11.80;;
5129;SDS011;2583;50.946;6.954;2023-02-15T11:48:14;11.87;;;10.63;;
5129;SDS011;2583;50.946;6.954;2023-02-15T11:50:42;21.60;;;10.80;;
5129;SDS011;2583;50.946;6.954;2023-02-15T11:53:11;21.33;;;12.23;;
5129;SDS011;2583;50.946;6.954;2023-02-15T11:55:44;15.17;;;12.00;;
5129;SDS011;2583;50.946;6.954;2023-02-15T11:58:36;16.80;;;11.70;;
5129;SDS011;2583;50.946;6.954;2023-02-15T12:03:52;12.93;;;11.73;;
5129;SDS011;2583;50.946;6.954;2023-02-15T12:06:23;14.77;;;11.87;;
5129;SDS011;2583;50.946;6.954;2023-02-15T12:14:52;14.73;;;11.20;;
5129;SDS011;2583;50.946;6.954;2023-02-15T12:17:20;12.13;;;10.97;;
5129;SDS011;2583;50.946;6.954;2023-02-15T12:19:50;24.10;;;12.03;;
5129;SDS011;2583;50.946;6.954;2023-02-15T12:22:30;11.97;;;10.83;;
5129;SDS011;2583;50.946;6.954;2023-02-15T12:24:59;15.17;;;11.53;;
5129;SDS011;2583;50.946;6.954;2023-02-15T12:27:28;16.03;;;11.17;;
5129;SDS011;2583;50.946;6.954;2023-02-15T12:30:01;13.37;;;11.97;;
5129;SDS011;2583;50.946;6.954;2023-02-15T12:32:34;17.80;;;15.07;;
5129;SDS011;2583;50.946;6.954;2023-02-15T12:35:13;15.80;;;11.87;;
5129;SDS011;2583;50.946;6.954;2023-02-15T12:37:52;15.53;;;11.37;;
5129;SDS011;2583;50.946;6.954;2023-02-15T12:40:22;14.50;;;12.40;;
5129;SDS011;2583;50.946;6.954;2023-02-15T12:42:56;17.20;;;13.83;;
5129;SDS011;2583;50.946;6.954;2023-02-15T12:45:28;18.63;;;12.20;;
5129;SDS011;2583;50.946;6.954;2023-02-15T12:50:38;13.13;;;10.77;;
5129;SDS011;2583;50.946;6.954;2023-02-15T12:53:32;13.57;;;11.50;;
5129;SDS011;2583;50.946;6.954;2023-02-15T12:56:02;12.80;;;10.87;;
5129;SDS011;2583;50.946;6.954;2023-02-15T12:58:31;12.70;;;11.40;;
5129;SDS011;2583;50.946;6.954;2023-02-15T13:03:35;12.73;;;11.27;;
5129;SDS011;2583;50.946;6.954;2023-02-15T13:06:04;12.37;;;11.03;;
5129;SDS011;2583;50.946;6.954;2023-02-15T13:08:37;19.93;;;12.30;;
5129;SDS011;2583;50.946;6.954;2023-02-15T13:11:12;16.63;;;11.30;;
5129;SDS011;2583;50.946;6.954;2023-02-15T13:13:50;12.27;;;10.97;;
5129;SDS011;2583;50.946;6.954;2023-02-15T13:16:34;19.73;;;12.00;;
5129;SDS011;2583;50.946;6.954;2023-02-15T13:19:06;17.77;;;12.30;;
5129;SDS011;2583;50.946;6.954;2023-02-15T13:21:39;12.20;;;11.00;;
5129;SDS011;2583;50.946;6.954;2023-02-15T13:26:45;12.63;;;11.37;;
5129;SDS011;2583;50.946;6.954;2023-02-15T13:29:27;18.70;;;15.43;;
5129;SDS011;2583;50.946;6.954;2023-02-15T13:31:56;15.00;;;11.93;;
5129;SDS011;2583;50.946;6.954;2023-02-15T13:34:36;13.20;;;11.27;;
5129;SDS011;2583;50.946;6.954;2023-02-15T13:37:16;15.40;;;11.37;;
5129;SDS011;2583;50.946;6.954;2023-02-15T13:39:54;13.17;;;10.60;;
5129;SDS011;2583;50.946;6.954;2023-02-15T13:48:10;12.80;;;10.97;;
5129;SDS011;2583;50.946;6.954;2023-02-15T14:01:42;12.10;;;11.00;;
5129;SDS011;2583;50.946;6.954;2023-02-15T14:07:33;12.33;;;10.87;;
5129;SDS011;2583;50.946;6.954;2023-02-15T14:15:34;12.73;;;11.47;;
5129;SDS011;2583;50.946;6.954;2023-02-15T14:18:34;13.43;;;11.93;;
5129;SDS011;2583;50.946;6.954;2023-02-15T14:23:44;11.53;;;10.43;;
5129;SDS011;2583;50.946;6.954;2023-02-15T14:26:31;10.73;;;9.63;;
5129;SDS011;2583;50.946;6.954;2023-02-15T14:32:12;12.40;;;11.20;;
5129;SDS011;2583;50.946;6.954;2023-02-15T14:34:54;11.87;;;10.70;;
5129;SDS011;2583;50.946;6.954;2023-02-15T14:37:37;11.30;;;10.30;;
5129;SDS011;2583;50.946;6.954;2023-02-15T14:49:05;12.30;;;10.70;;
5129;SDS011;2583;50.946;6.954;2023-02-15T14:57:32;11.87;;;10.70;;
5129;SDS011;2583;50.946;6.954;2023-02-15T14:59:45;12.27;;;10.70;;
5129;SDS011;2583;50.946;6.954;2023-02-15T15:02:17;13.50;;;12.13;;
5129;SDS011;2583;50.946;6.954;2023-02-15T15:12:47;13.30;;;10.67;;
5129;SDS011;2583;50.946;6.954;2023-02-15T15:17:58;15.70;;;11.20;;
5129;SDS011;2583;50.946;6.954;2023-02-15T15:33:46;13.83;;;11.70;;
5129;SDS011;2583;50.946;6.954;2023-02-15T15:41:56;13.93;;;11.53;;
5129;SDS011;2583;50.946;6.954;2023-02-15T15:50:32;12.37;;;11.10;;
5129;SDS011;2583;50.946;6.954;2023-02-15T15:53:00;12.43;;;11.03;;
5129;SDS011;2583;50.946;6.954;2023-02-15T15:55:29;16.70;;;12.70;;
5129;SDS011;2583;50.946;6.954;2023-02-15T15:57:59;14.67;;;12.40;;
5129;SDS011;2583;50.946;6.954;2023-02-15T16:00:34;13.03;;;11.63;;
5129;SDS011;2583;50.946;6.954;2023-02-15T16:03:14;19.70;;;12.53;;
5129;SDS011;2583;50.946;6.954;2023-02-15T16:05:46;20.77;;;14.60;;
5129;SDS011;2583;50.946;6.954;2023-02-15T16:08:14;18.37;;;14.40;;
5129;SDS011;2583;50.946;6.954;2023-02-15T16:10:52;20.67;;;15.20;;
5129;SDS011;2583;50.946;6.954;2023-02-15T16:13:19;17.20;;;13.50;;
5129;SDS011;2583;50.946;6.954;2023-02-15T16:15:47;14.43;;;12.10;;
5129;SDS011;2583;50.946;6.954;2023-02-15T16:18:19;12.87;;;11.57;;
5129;SDS011;2583;50.946;6.954;2023-02-15T16:21:01;15.70;;;10.70;;
5129;SDS011;2583;50.946;6.954;2023-02-15T16:26:35;16.70;;;12.60;;
5129;SDS011;2583;50.946;6.954;2023-02-15T16:29:14;12.57;;;11.13;;
5129;SDS011;2583;50.946;6.954;2023-02-15T16:32:03;13.20;;;11.50;;
5129;SDS011;2583;50.946;6.954;2023-02-15T16:34:32;12.97;;;11.70;;
5129;SDS011;2583;50.946;6.954;2023-02-15T16:37:12;15.83;;;12.83;;
5129;SDS011;2583;50.946;6.954;2023-02-15T16:39:48;16.50;;;13.63;;
5129;SDS011;2583;50.946;6.954;2023-02-15T16:42:15;13.97;;;12.50;;
5129;SDS011;2583;50.946;6.954;2023-02-15T16:44:45;15.93;;;11.57;;
5129;SDS011;2583;50.946;6.954;2023-02-15T16:47:15;13.33;;;12.00;;
5129;SDS011;2583;50.946;6.954;2023-02-15T16:49:46;19.60;;;12.50;;
5129;SDS011;2583;50.946;6.954;2023-02-15T16:52:19;13.77;;;12.50;;
5129;SDS011;2583;50.946;6.954;2023-02-15T16:54:50;14.80;;;11.80;;
5129;SDS011;2583;50.946;6.954;2023-02-15T16:57:23;19.83;;;13.70;;
5129;SDS011;2583;50.946;6.954;2023-02-15T16:59:53;19.10;;;16.43;;
5129;SDS011;2583;50.946;6.954;2023-02-15T17:02:27;17.73;;;15.00;;
5129;SDS011;2583;50.946;6.954;2023-02-15T17:05:17;16.00;;;12.67;;
5129;SDS011;2583;50.946;6.954;2023-02-15T17:08:04;13.57;;;11.83;;
5129;SDS011;2583;50.946;6.954;2023-02-15T17:10:39;19.70;;;12.57;;
5129;SDS011;2583;50.946;6.954;2023-02-15T17:13:14;17.47;;;12.80;;
5129;SDS011;2583;50.946;6.954;2023-02-15T17:15:43;14.70;;;12.83;;
5129;SDS011;2583;50.946;6.954;2023-02-15T17:18:43;13.07;;;11.77;;
5129;SDS011;2583;50.946;6.954;2023-02-15T17:21:13;16.90;;;11.93;;
5129;SDS011;2583;50.946;6.954;2023-02-15T17:23:48;17.47;;;11.90;;
5129;SDS011;2583;50.946;6.954;2023-02-15T17:26:24;18.30;;;12.80;;
5129;SDS011;2583;50.946;6.954;2023-02-15T17:28:56;17.13;;;11.80;;
5129;SDS011;2583;50.946;6.954;2023-02-15T17:31:27;15.63;;;11.87;;
5129;SDS011;2583;50.946;6.954;2023-02-15T17:33:58;17.90;;;12.50;;
5129;SDS011;2583;50.946;6.954;2023-02-15T17:36:27;14.87;;;11.70;;
5129;SDS011;2583;50.946;6.954;2023-02-15T17:41:31;15.07;;;12.70;;
5129;SDS011;2583;50.946;6.954;2023-02-15T17:44:00;14.07;;;12.60;;
5129;SDS011;2583;50.946;6.954;2023-02-15T17:46:33;14.50;;;12.27;;
5129;SDS011;2583;50.946;6.954;2023-02-15T17:49:02;15.73;;;11.80;;
5129;SDS011;2583;50.946;6.954;2023-02-15T17:51:30;13.23;;;11.90;;
5129;SDS011;2583;50.946;6.954;2023-02-15T17:53:57;13.97;;;12.40;;
5129;SDS011;2583;50.946;6.954;2023-02-15T17:56:43;19.17;;;13.10;;
5129;SDS011;2583;50.946;6.954;2023-02-15T17:59:10;17.60;;;12.70;;
5129;SDS011;2583;50.946;6.954;2023-02-15T18:01:46;14.60;;;12.73;;
5129;SDS011;2583;50.946;6.954;2023-02-15T18:04:34;17.63;;;12.80;;
5129;SDS011;2583;50.946;6.954;2023-02-15T18:07:21;13.20;;;11.60;;
5129;SDS011;2583;50.946;6.954;2023-02-15T18:10:14;16.20;;;12.40;;
5129;SDS011;2583;50.946;6.954;2023-02-15T18:13:00;16.73;;;13.50;;
5129;SDS011;2583;50.946;6.954;2023-02-15T18:15:27;16.43;;;13.23;;
5129;SDS011;2583;50.946;6.954;2023-02-15T18:17:54;15.63;;;13.30;;
5129;SDS011;2583;50.946;6.954;2023-02-15T18:22:54;17.17;;;13.37;;
5129;SDS011;2583;50.946;6.954;2023-02-15T18:25:21;16.00;;;12.93;;
5129;SDS011;2583;50.946;6.954;2023-02-15T18:27:51;17.20;;;12.63;;
5129;SDS011;2583;50.946;6.954;2023-02-15T18:30:20;22.60;;;14.53;;
5129;SDS011;2583;50.946;6.954;2023-02-15T18:32:50;16.70;;;13.90;;
5129;SDS011;2583;50.946;6.954;2023-02-15T18:35:19;13.83;;;12.37;;
5129;SDS011;2583;50.946;6.954;2023-02-15T18:37:48;14.90;;;12.10;;
5129;SDS011;2583;50.946;6.954;2023-02-15T18:40:16;12.70;;;11.20;;
5129;SDS011;2583;50.946;6.954;2023-02-15T18:42:44;12.07;;;10.90;;
5129;SDS011;2583;50.946;6.954;2023-02-15T18:45:16;15.10;;;12.37;;
5129;SDS011;2583;50.946;6.954;2023-02-15T18:47:44;14.00;;;12.50;;
5129;SDS011;2583;50.946;6.954;2023-02-15T18:50:13;15.40;;;12.37;;